Time;durP1;ratioP1;P1;durP2;ratioP2;P2;SDS_P1;SDS_P2;PMS_P1;PMS_P2;Temp;Humidity;BMP_temperature;BMP_pressure;BME280_temperature;BME280_humidity;BME280_pressure;Samples;Min_cycle;Max_cycle;Signal;HPM_P1;HPM_P2
2022/05/11 00:00:44;;;;;;;11.18;2.53;;;;;;;14.27;92.73;101278.50;5049117;28;20074;-76
2022/05/11 00:03:10;;;;;;;9.43;2.72;;;;;;;14.25;92.71;101269.66;5066661;28;20098;-75
2022/05/11 00:05:36;;;;;;;12.32;2.33;;;;;;;14.34;92.90;101276.78;5066335;28;20740;-74
2022/05/11 00:08:03;;;;;;;7.78;2.28;;;;;;;14.31;92.74;101282.94;5067531;28;20049;-74
2022/05/11 00:10:30;;;;;;;11.80;2.70;;;;;;;14.22;93.25;101269.63;5067371;28;20029;-74
2022/05/11 00:12:57;;;;;;;12.68;2.47;;;;;;;14.21;93.43;101267.84;5072731;28;20032;-75
2022/05/11 00:15:23;;;;;;;9.30;2.40;;;;;;;14.27;93.25;101270.56;5068990;28;20077;-75
2022/05/11 00:17:49;;;;;;;10.85;3.40;;;;;;;14.32;92.56;101276.78;5066025;28;20051;-74
2022/05/11 00:20:16;;;;;;;9.52;2.30;;;;;;;14.26;92.71;101273.19;5063384;28;20388;-76
2022/05/11 00:22:42;;;;;;;8.80;2.70;;;;;;;14.19;92.78;101271.34;5065047;28;20115;-75
2022/05/11 00:25:14;;;;;;;7.35;2.72;;;;;;;14.22;92.72;101266.09;5068678;28;20143;-74
2022/05/11 00:27:39;;;;;;;9.73;3.47;;;;;;;14.26;92.65;101268.78;5066999;28;20021;-74
2022/05/11 00:30:06;;;;;;;12.52;2.67;;;;;;;14.25;92.38;101266.13;5065351;28;20035;-75
2022/05/11 00:32:32;;;;;;;8.80;2.53;;;;;;;14.27;92.41;101267.00;5066559;28;20054;-74
2022/05/11 00:34:58;;;;;;;9.02;2.72;;;;;;;14.27;92.76;101267.00;5067734;28;20480;-76
2022/05/11 00:37:24;;;;;;;13.02;2.78;;;;;;;14.23;92.94;101265.22;5067877;28;20046;-75
2022/05/11 00:39:50;;;;;;;10.32;2.60;;;;;;;14.24;93.37;101267.88;5067462;28;20039;-76
2022/05/11 00:42:15;;;;;;;16.95;2.90;;;;;;;14.33;92.92;101257.34;5069628;28;20071;-74
2022/05/11 00:44:41;;;;;;;10.10;2.38;;;;;;;14.32;93.04;101260.91;5068155;28;20489;-74
2022/05/11 00:47:24;;;;;;;13.00;2.58;;;;;;;14.26;93.56;101262.59;5074670;28;20169;-75
2022/05/11 00:49:53;;;;;;;8.97;2.70;;;;;;;14.31;93.67;101252.91;5069045;28;20039;-76
2022/05/11 00:52:22;;;;;;;13.07;2.90;;;;;;;14.24;94.12;101251.09;5085636;28;20772;-75
2022/05/11 00:54:55;;;;;;;10.77;2.67;;;;;;;14.26;94.30;101244.97;5068589;28;20455;-75
2022/05/11 00:57:37;;;;;;;16.20;2.80;;;;;;;14.25;94.25;101245.81;5066739;28;20032;-75
2022/05/11 01:00:08;;;;;;;11.18;3.03;;;;;;;14.26;94.67;101244.09;5069391;28;20108;-76
2022/05/11 01:02:34;;;;;;;12.77;2.92;;;;;;;14.31;94.65;101237.03;5051908;28;20078;-75
2022/05/11 01:05:03;;;;;;;11.40;3.13;;;;;;;14.22;94.74;101232.56;5051662;28;20119;-75
2022/05/11 01:07:29;;;;;;;15.80;2.92;;;;;;;14.26;94.76;101228.19;5068321;28;20032;-74
2022/05/11 01:09:54;;;;;;;12.15;2.67;;;;;;;14.29;94.60;101236.16;5072648;28;20027;-74
2022/05/11 01:12:25;;;;;;;12.32;2.78;;;;;;;14.19;95.14;101226.34;5071421;28;20544;-75
2022/05/11 01:14:57;;;;;;;10.32;2.63;;;;;;;14.26;95.18;101222.91;5070955;28;20037;-75
2022/05/11 01:17:24;;;;;;;13.98;3.67;;;;;;;14.25;95.20;101222.00;5067665;28;20032;-75
2022/05/11 01:19:50;;;;;;;10.85;2.63;;;;;;;14.09;95.49;101215.69;5071244;28;20020;-75
2022/05/11 01:22:19;;;;;;;8.50;2.92;;;;;;;14.13;95.59;101217.53;5070014;28;20051;-75
2022/05/11 01:24:47;;;;;;;20.35;3.72;;;;;;;14.10;95.99;101206.88;5068442;28;20072;-75
2022/05/11 01:27:24;;;;;;;12.18;2.67;;;;;;;14.13;95.43;101217.53;5070176;28;20024;-74
2022/05/11 01:29:51;;;;;;;11.77;2.40;;;;;;;14.15;95.37;101210.47;5069396;28;20032;-75
2022/05/11 01:32:18;;;;;;;9.95;2.65;;;;;;;14.18;94.77;101208.72;5070695;28;20016;-75
2022/05/11 01:34:43;;;;;;;15.70;2.83;;;;;;;14.18;95.11;101206.09;5059201;28;20032;-76
2022/05/11 01:37:08;;;;;;;11.43;2.70;;;;;;;14.25;94.73;101205.25;5071094;28;20032;-75
2022/05/11 01:39:34;;;;;;;8.57;2.28;;;;;;;14.23;94.79;101201.69;5068819;28;20503;-75
2022/05/11 01:41:59;;;;;;;9.65;2.72;;;;;;;14.27;94.53;101203.47;5058525;28;20032;-75
2022/05/11 01:44:25;;;;;;;10.02;3.35;;;;;;;14.24;94.64;101201.69;5067614;28;20119;-75
2022/05/11 01:46:54;;;;;;;8.10;2.88;;;;;;;14.13;94.45;101201.63;5068464;28;20032;-75
2022/05/11 01:49:21;;;;;;;8.52;2.80;;;;;;;14.15;94.54;101199.88;5067642;28;20020;-75
2022/05/11 01:51:47;;;;;;;9.82;2.15;;;;;;;14.13;94.59;101204.28;5069858;28;20024;-75
2022/05/11 01:54:12;;;;;;;10.27;2.65;;;;;;;14.14;94.21;101202.50;5068976;28;20101;-75
2022/05/11 01:56:38;;;;;;;13.13;3.22;;;;;;;14.13;94.27;101201.63;5069441;28;20033;-76
2022/05/11 01:59:04;;;;;;;11.55;2.28;;;;;;;14.14;93.72;101200.75;5068815;28;20032;-76
2022/05/11 02:01:30;;;;;;;10.85;2.50;;;;;;;14.19;93.39;101191.94;5068066;28;20024;-75
2022/05/11 02:03:56;;;;;;;13.02;2.88;;;;;;;14.11;91.81;101182.22;5066482;28;20061;-76
2022/05/11 02:09:07;;;;;;;10.48;2.38;;;;;;;14.16;90.45;101193.72;5067068;28;20031;-75
2022/05/11 02:11:32;;;;;;;15.00;2.75;;;;;;;14.14;89.31;101187.50;5067120;28;20032;-76
2022/05/11 02:13:58;;;;;;;10.88;2.35;;;;;;;14.18;89.01;101187.56;5074370;28;20071;-74
2022/05/11 02:16:24;;;;;;;9.30;2.33;;;;;;;14.15;88.16;101186.66;5067500;28;20364;-76
2022/05/11 02:18:50;;;;;;;6.25;2.00;;;;;;;14.20;87.53;101185.78;5067328;28;20028;-75
2022/05/11 02:21:15;;;;;;;5.88;1.90;;;;;;;14.19;86.72;101176.97;5073136;28;20059;-75
2022/05/11 02:23:40;;;;;;;11.68;1.73;;;;;;;14.16;86.15;101179.56;5074254;28;20028;-76
2022/05/11 02:26:09;;;;;;;8.30;2.08;;;;;;;14.16;86.47;101169.91;5072047;28;20391;-75
2022/05/11 02:28:34;;;;;;;7.40;1.80;;;;;;;14.18;86.12;101166.38;5072801;28;20024;-75
2022/05/11 02:31:00;;;;;;;9.52;2.00;;;;;;;14.14;86.23;101160.19;5072593;28;20131;-75
2022/05/11 02:33:27;;;;;;;9.13;1.98;;;;;;;14.22;85.78;101160.22;5071149;28;20078;-75
2022/05/11 02:35:53;;;;;;;9.32;2.03;;;;;;;14.24;85.44;101162.00;5063355;28;20024;-75
2022/05/11 02:38:25;;;;;;;7.40;2.20;;;;;;;14.18;84.80;101161.09;5071377;28;20044;-75
2022/05/11 02:40:51;;;;;;;7.63;2.45;;;;;;;14.11;84.83;101155.75;5072335;28;20119;-76
2022/05/11 02:43:16;;;;;;;7.22;1.80;;;;;;;14.13;84.54;101158.41;5072614;28;20031;-74
2022/05/11 02:45:45;;;;;;;6.72;1.88;;;;;;;14.19;84.42;101157.53;5067509;28;20028;-75
2022/05/11 02:48:14;;;;;;;8.40;1.95;;;;;;;14.12;84.09;101160.16;5065994;28;20468;-75
2022/05/11 02:50:52;;;;;;;6.95;1.70;;;;;;;14.17;84.10;101162.84;5065981;28;20494;-74
2022/05/11 02:53:19;;;;;;;7.38;1.60;;;;;;;14.19;84.62;101160.19;5066379;28;20414;-73
2022/05/11 02:55:47;;;;;;;9.07;2.40;;;;;;;14.15;84.28;101162.81;5063760;28;20024;-75
2022/05/11 02:58:14;;;;;;;7.40;1.92;;;;;;;14.10;84.30;101155.72;5065355;28;20028;-75
2022/05/11 03:00:43;;;;;;;10.25;2.30;;;;;;;14.03;84.53;101152.16;5061558;28;20035;-74
2022/05/11 03:03:11;;;;;;;9.57;2.15;;;;;;;14.05;84.74;101155.69;5064605;28;20033;-75
2022/05/11 03:05:38;;;;;;;6.45;1.80;;;;;;;14.08;84.53;101150.44;5064781;28;20028;-75
2022/05/11 03:08:05;;;;;;;11.65;1.95;;;;;;;14.05;84.77;101153.03;5064233;28;20029;-74
2022/05/11 03:10:31;;;;;;;12.25;2.10;;;;;;;14.10;84.44;101151.31;5069468;28;20616;-74
2022/05/11 03:12:56;;;;;;;5.55;1.70;;;;;;;14.06;84.35;101146.88;5066195;28;20025;-75
2022/05/11 03:15:21;;;;;;;14.93;3.65;;;;;;;14.04;84.77;101151.28;5062321;28;20107;-75
2022/05/11 03:17:47;;;;;;;12.32;2.78;;;;;;;14.12;84.42;101143.38;5069516;28;20345;-75
2022/05/11 03:20:13;;;;;;;12.52;2.13;;;;;;;14.08;84.53;101139.84;5071812;28;20035;-74
2022/05/11 03:22:39;;;;;;;6.30;1.73;;;;;;;14.03;84.82;101135.41;5071599;28;20032;-75
2022/05/11 03:25:07;;;;;;;12.77;1.70;;;;;;;13.97;84.57;101141.50;5069066;28;20051;-75
2022/05/11 03:27:32;;;;;;;10.98;1.98;;;;;;;13.95;84.76;101143.28;5067237;28;20115;-75
2022/05/11 03:29:58;;;;;;;10.55;2.40;;;;;;;13.93;84.65;101135.34;5065862;28;20119;-74
2022/05/11 03:35:08;;;;;;;;;;;;;;;14.08;83.75;101133.66;5065515;28;20089;-75
2022/05/11 03:37:34;;;;;;;9.90;1.85;;;;;;;14.02;83.50;101134.50;5066446;28;19935;-75
2022/05/11 03:40:00;;;;;;;9.05;1.80;;;;;;;14.00;83.84;101126.56;5068385;28;20032;-76
2022/05/11 03:42:31;;;;;;;6.82;1.70;;;;;;;13.96;83.92;101122.13;5068216;28;20060;-75
2022/05/11 03:45:08;;;;;;;8.07;1.80;;;;;;;13.95;83.46;101127.41;5067653;28;20025;-75
2022/05/11 03:47:33;;;;;;;5.97;1.52;;;;;;;14.02;83.29;101128.34;5065056;28;20028;-74
2022/05/11 03:49:59;;;;;;;7.18;1.80;;;;;;;14.01;83.07;101127.44;5072954;28;20044;-75
2022/05/11 03:52:24;;;;;;;16.80;1.80;;;;;;;13.94;83.19;101110.63;5071339;28;20060;-74
2022/05/11 03:54:51;;;;;;;13.95;2.10;;;;;;;13.93;83.09;101106.25;5071333;28;20052;-75
2022/05/11 03:57:16;;;;;;;6.47;1.45;;;;;;;13.99;82.76;101113.31;5072024;28;20419;-75
2022/05/11 03:59:41;;;;;;;6.43;1.48;;;;;;;13.99;82.51;101114.19;5067975;28;20027;-75
2022/05/11 04:02:07;;;;;;;11.95;1.80;;;;;;;14.02;82.45;101107.16;5070943;28;20059;-76
2022/05/11 04:04:32;;;;;;;8.00;1.25;;;;;;;14.06;82.20;101112.47;5068823;28;20383;-75
2022/05/11 04:06:58;;;;;;;7.07;1.70;;;;;;;14.02;82.13;101105.41;5070077;28;20067;-75
2022/05/11 04:09:23;;;;;;;10.55;1.90;;;;;;;14.03;82.21;101107.19;5066721;28;20442;-75
2022/05/11 04:11:48;;;;;;;10.15;2.08;;;;;;;14.04;81.64;101111.59;5071390;28;20590;-76
2022/05/11 04:14:13;;;;;;;8.23;1.48;;;;;;;14.01;81.36;101100.97;5074873;28;20024;-75
2022/05/11 04:16:39;;;;;;;4.20;1.30;;;;;;;14.04;81.24;101110.69;5075366;28;20020;-75
2022/05/11 04:19:05;;;;;;;8.93;2.00;;;;;;;14.04;81.21;101101.00;5051131;28;20044;-74
2022/05/11 04:21:31;;;;;;;11.15;1.60;;;;;;;14.02;81.30;101101.88;5074771;28;20033;-76
2022/05/11 04:23:56;;;;;;;4.53;1.25;;;;;;;13.99;81.55;101105.38;5075733;28;20035;-75
2022/05/11 04:26:22;;;;;;;6.47;1.33;;;;;;;13.96;81.57;101110.66;5075087;28;20495;-75
2022/05/11 04:28:47;;;;;;;7.40;1.90;;;;;;;13.92;81.40;101106.22;5074861;28;20387;-75
2022/05/11 04:31:13;;;;;;;9.73;1.70;;;;;;;13.94;81.78;101107.97;5067772;28;21909;-75
2022/05/11 04:33:39;;;;;;;6.10;1.40;;;;;;;14.02;81.79;101107.16;5070666;28;20025;-75
2022/05/11 04:36:05;;;;;;;4.60;1.50;;;;;;;13.95;81.71;101100.94;5069242;28;20035;-75
2022/05/11 04:38:30;;;;;;;7.30;1.27;;;;;;;14.01;81.46;101098.31;5070394;28;20051;-75
2022/05/11 04:40:55;;;;;;;7.55;1.30;;;;;;;13.97;81.48;101108.03;5070956;28;20085;-75
2022/05/11 04:43:21;;;;;;;6.15;1.38;;;;;;;14.03;81.21;101108.94;5074959;28;20077;-75
2022/05/11 04:45:47;;;;;;;6.40;1.60;;;;;;;13.94;81.54;101094.75;5071804;28;20023;-75
2022/05/11 04:48:14;;;;;;;7.65;2.08;;;;;;;13.99;81.61;101100.97;5073806;28;20059;-75
2022/05/11 04:50:42;;;;;;;15.63;1.67;;;;;;;13.92;81.33;101095.66;5071297;28;20028;-75
2022/05/11 04:53:09;;;;;;;5.78;1.20;;;;;;;13.95;81.87;101106.25;5070908;28;20066;-74
2022/05/11 04:55:35;;;;;;;8.82;2.00;;;;;;;13.95;81.85;101100.94;5071782;28;20102;-74
2022/05/11 04:58:00;;;;;;;12.25;1.60;;;;;;;13.93;82.40;101106.25;5071092;28;20032;-74
2022/05/11 05:00:26;;;;;;;6.85;1.90;;;;;;;13.98;82.13;101111.53;5070082;28;20029;-75
2022/05/11 05:02:52;;;;;;;5.78;1.50;;;;;;;14.02;81.38;101108.03;5067993;28;20051;-75
2022/05/11 05:05:20;;;;;;;6.05;1.20;;;;;;;14.07;81.61;101111.59;5075010;28;20365;-74
2022/05/11 05:07:45;;;;;;;9.52;1.48;;;;;;;14.08;81.62;101113.38;5067140;28;20468;-75
2022/05/11 05:10:13;;;;;;;10.43;1.55;;;;;;;14.04;81.49;101110.69;5068839;28;20050;-76
2022/05/11 05:12:41;;;;;;;3.95;1.40;;;;;;;13.94;81.75;101109.75;5074990;28;20388;-75
2022/05/11 05:15:06;;;;;;;6.30;1.17;;;;;;;13.91;82.35;101115.03;5071814;28;20028;-76
2022/05/11 05:17:33;;;;;;;9.48;1.40;;;;;;;13.90;82.29;101114.13;5073619;28;20123;-74
2022/05/11 05:19:59;;;;;;;5.78;1.40;;;;;;;13.84;82.76;101114.09;5069751;28;20024;-74
2022/05/11 05:22:24;;;;;;;9.20;2.22;;;;;;;13.79;82.75;101115.81;5071718;28;20468;-74
2022/05/11 05:24:50;;;;;;;8.10;1.20;;;;;;;13.78;83.12;101121.97;5072666;28;20044;-74
2022/05/11 05:27:18;;;;;;;8.50;1.55;;;;;;;13.88;82.95;101120.31;5072945;28;20027;-74
2022/05/11 05:32:34;;;;;;;12.57;1.63;;;;;;;13.86;83.77;101122.03;5071500;28;20036;-75
2022/05/11 05:35:00;;;;;;;8.65;1.65;;;;;;;13.89;83.97;101116.75;5069963;28;20054;-75
2022/05/11 05:37:25;;;;;;;7.30;1.08;;;;;;;13.92;83.41;101119.47;5073982;28;20464;-76
2022/05/11 05:39:51;;;;;;;6.85;1.55;;;;;;;14.00;83.24;101110.69;5071995;28;20028;-74
2022/05/11 05:42:22;;;;;;;7.57;1.73;;;;;;;14.06;82.73;101115.13;5071027;28;20514;-74
2022/05/11 05:44:48;;;;;;;9.60;1.30;;;;;;;14.20;82.67;101127.56;5072556;28;20059;-75
2022/05/11 05:47:15;;;;;;;8.98;1.50;;;;;;;14.27;82.01;101110.84;5073579;28;20032;-74
2022/05/11 05:49:41;;;;;;;23.92;2.75;;;;;;;14.28;81.61;101115.25;5072161;28;20078;-75
2022/05/11 05:52:07;;;;;;;8.70;1.58;;;;;;;14.29;81.84;101114.38;5073638;28;20450;-78
2022/05/11 05:54:36;;;;;;;14.73;2.40;;;;;;;14.28;82.09;101116.16;5071757;28;20024;-76
2022/05/11 05:57:01;;;;;;;21.10;2.88;;;;;;;14.33;82.28;101117.03;5073218;28;20028;-75
2022/05/11 05:59:26;;;;;;;13.93;2.22;;;;;;;14.33;81.06;101114.41;5073455;28;20036;-73
2022/05/11 06:01:52;;;;;;;19.88;3.05;;;;;;;14.37;81.73;101110.03;5071037;28;20035;-74
2022/05/11 06:04:19;;;;;;;11.18;1.60;;;;;;;14.48;81.74;101116.25;5073273;28;20032;-74
2022/05/11 06:06:45;;;;;;;8.98;1.80;;;;;;;14.44;81.63;101114.47;5074611;28;20410;-74
2022/05/11 06:09:10;;;;;;;14.55;1.40;;;;;;;14.50;81.81;101113.59;5073087;28;20031;-75
2022/05/11 06:11:38;;;;;;;6.88;1.83;;;;;;;14.47;80.88;101117.13;5071704;28;20052;-74
2022/05/11 06:14:05;;;;;;;5.63;1.30;;;;;;;14.53;80.88;101112.72;5073312;28;20087;-74
2022/05/11 06:16:34;;;;;;;6.03;1.42;;;;;;;14.40;81.05;101122.38;5072495;28;20082;-75
2022/05/11 06:19:01;;;;;;;13.82;1.90;;;;;;;14.43;81.67;101120.66;5073524;28;20028;-75
2022/05/11 06:21:26;;;;;;;7.53;1.48;;;;;;;14.43;80.95;101120.66;5073025;28;20513;-74
2022/05/11 06:23:51;;;;;;;9.55;1.63;;;;;;;14.49;81.29;101118.00;5073007;28;20111;-74
2022/05/11 06:26:18;;;;;;;10.68;1.65;;;;;;;14.49;80.50;101110.06;5074258;28;20059;-73
2022/05/11 06:28:45;;;;;;;10.40;2.13;;;;;;;14.53;80.32;101116.28;5074322;28;20479;-74
2022/05/11 06:31:12;;;;;;;6.07;1.25;;;;;;;14.61;79.42;101111.00;5071280;28;20475;-74
2022/05/11 06:33:37;;;;;;;8.55;1.75;;;;;;;14.63;79.06;101117.22;5070863;28;20016;-76
2022/05/11 06:36:05;;;;;;;6.05;1.17;;;;;;;14.66;78.55;101114.59;5072215;28;20039;-74
2022/05/11 06:38:30;;;;;;;8.02;1.65;;;;;;;14.62;78.07;101111.03;5072279;28;20067;-75
2022/05/11 06:40:57;;;;;;;10.00;1.63;;;;;;;14.64;78.19;101117.22;5073949;28;20129;-74
2022/05/11 06:43:23;;;;;;;3.58;1.17;;;;;;;14.68;76.81;101112.84;5071085;28;20051;-75
2022/05/11 06:45:49;;;;;;;11.93;1.63;;;;;;;14.80;77.04;101112.88;5070746;28;20028;-74
2022/05/11 06:48:14;;;;;;;6.13;1.17;;;;;;;14.89;77.51;101119.09;5071685;28;20020;-75
2022/05/11 06:50:41;;;;;;;5.78;1.88;;;;;;;14.97;76.51;101117.34;5072159;28;20059;-75
2022/05/11 06:53:10;;;;;;;8.02;1.83;;;;;;;15.02;76.12;101120.91;5073936;28;20466;-76
2022/05/11 07:01:08;;;;;;;4.78;0.98;;;;;;;15.20;73.79;101108.56;5073001;28;20044;-74
2022/05/11 07:03:34;;;;;;;5.57;1.13;;;;;;;15.15;74.51;101106.81;5072049;28;20456;-75
2022/05/11 07:06:00;;;;;;;6.18;1.30;;;;;;;15.21;74.51;101105.91;5072092;28;20040;-75
2022/05/11 07:08:39;;;;;;;7.22;1.40;;;;;;;15.31;73.62;101099.75;5070740;28;20029;-74
2022/05/11 07:13:49;;;;;;;8.43;1.10;;;;;;;15.43;74.56;101104.16;5072782;28;20085;-75
2022/05/11 07:16:16;;;;;;;7.95;1.65;;;;;;;15.50;74.61;101103.31;5072203;28;20021;-75
2022/05/11 07:18:42;;;;;;;6.43;1.50;;;;;;;15.62;74.35;101093.56;5071898;28;20031;-74
2022/05/11 07:21:08;;;;;;;9.35;1.80;;;;;;;15.61;74.83;101099.75;5073403;28;20024;-74
2022/05/11 07:23:33;;;;;;;10.65;1.60;;;;;;;15.54;74.44;101098.88;5073307;28;20040;-75
2022/05/11 07:25:59;;;;;;;6.57;1.42;;;;;;;15.55;75.57;101105.06;5071440;28;20088;-75
2022/05/11 07:28:24;;;;;;;7.10;1.30;;;;;;;15.54;75.52;101098.00;5072749;28;20486;-76
2022/05/11 07:30:51;;;;;;;7.65;1.42;;;;;;;15.54;74.72;101103.31;5072975;28;20027;-76
2022/05/11 07:33:17;;;;;;;5.90;1.52;;;;;;;15.55;75.00;101089.16;5071115;28;20035;-76
2022/05/11 07:35:44;;;;;;;8.10;1.42;;;;;;;15.60;74.93;101097.97;5072739;28;20488;-75
2022/05/11 07:38:15;;;;;;;6.07;1.50;;;;;;;15.59;75.76;101096.22;5054867;28;20078;-75
2022/05/11 07:40:41;;;;;;;9.73;1.35;;;;;;;15.59;76.15;101098.88;5072505;28;20024;-75
2022/05/11 07:43:10;;;;;;;8.35;1.40;;;;;;;15.64;77.25;101105.06;5071719;28;20028;-74
2022/05/11 07:45:37;;;;;;;13.82;1.75;;;;;;;15.73;77.00;101102.41;5072255;28;20486;-75
2022/05/11 07:48:03;;;;;;;10.18;1.85;;;;;;;15.72;77.58;101111.28;5070368;28;20111;-76
2022/05/11 07:50:30;;;;;;;14.05;2.58;;;;;;;15.50;78.29;101119.22;5052783;28;20135;-74
2022/05/11 07:52:56;;;;;;;11.68;2.05;;;;;;;15.51;79.46;101113.00;5074901;28;20028;-76
2022/05/11 07:55:24;;;;;;;11.80;2.20;;;;;;;15.68;79.25;101122.72;5071476;28;20036;-76
2022/05/11 08:00:35;;;;;;;9.90;1.80;;;;;;;15.70;79.08;101113.03;5072066;28;20110;-75
2022/05/11 08:03:00;;;;;;;18.88;1.90;;;;;;;15.56;78.29;101113.03;5071790;28;20067;-75
2022/05/11 08:05:26;;;;;;;13.23;2.33;;;;;;;15.60;78.62;101119.19;5070886;28;20048;-76
2022/05/11 08:07:54;;;;;;;14.18;2.55;;;;;;;15.62;78.51;101120.09;5069191;28;20077;-75
2022/05/11 08:10:25;;;;;;;10.07;1.95;;;;;;;15.51;77.04;101113.00;5070201;28;20042;-74
2022/05/11 08:12:52;;;;;;;14.82;3.25;;;;;;;15.66;78.70;101113.91;5071567;28;20091;-76
2022/05/11 08:15:19;;;;;;;139.20;17.52;;;;;;;15.63;78.16;101109.47;5069717;28;20384;-76
2022/05/11 08:17:46;;;;;;;15.45;3.30;;;;;;;15.55;79.96;101121.00;5071960;28;20452;-75
2022/05/11 08:20:18;;;;;;;17.98;2.67;;;;;;;15.66;80.68;101119.22;5072356;28;20075;-75
2022/05/11 08:22:45;;;;;;;13.52;1.92;;;;;;;15.65;81.71;101125.41;5071519;28;20041;-76
2022/05/11 08:25:12;;;;;;;13.50;2.40;;;;;;;15.68;81.81;101130.69;5053818;28;20044;-75
2022/05/11 08:27:39;;;;;;;13.73;2.97;;;;;;;15.77;80.93;101117.44;5072255;28;20064;-76
2022/05/11 08:35:34;;;;;;;12.75;2.45;;;;;;;15.73;80.81;101128.94;5069862;28;20051;-76
2022/05/11 08:37:59;;;;;;;19.45;2.53;;;;;;;15.85;81.42;101130.72;5070822;28;20024;-76
2022/05/11 08:40:39;;;;;;;11.18;2.80;;;;;;;15.65;83.26;101131.59;5072604;28;20033;-77
2022/05/11 08:43:10;;;;;;;74.05;13.60;;;;;;;15.80;84.93;101133.41;5069705;28;20028;-75
2022/05/11 08:45:42;;;;;;;30.92;5.72;;;;;;;15.80;84.23;101128.09;5070687;28;20024;-78
2022/05/11 08:48:17;;;;;;;14.90;2.67;;;;;;;15.81;84.76;101132.50;5072467;28;20089;-76
2022/05/11 08:50:46;;;;;;;14.52;2.58;;;;;;;16.10;85.15;101142.22;5070034;28;20028;-75
2022/05/11 08:53:41;;;;;;;8.35;2.10;;;;;;;16.08;83.54;101136.00;5070018;28;20035;-76
2022/05/11 08:56:29;;;;;;;14.02;2.97;;;;;;;16.21;84.70;101128.03;5062451;28;20436;-76
2022/05/11 08:58:57;;;;;;;14.32;2.88;;;;;;;16.27;85.25;101130.69;5068906;28;20044;-76
2022/05/11 09:01:45;;;;;;;14.63;3.05;;;;;;;16.45;83.89;101119.97;5073052;28;20028;-76
2022/05/11 09:04:15;;;;;;;11.95;2.65;;;;;;;16.55;84.59;101127.94;5072980;28;20471;-76
2022/05/11 09:06:44;;;;;;;19.00;3.35;;;;;;;16.47;84.82;101131.50;5075558;28;20372;-77
2022/05/11 09:09:10;;;;;;;19.10;3.40;;;;;;;16.29;85.20;101127.13;5075193;28;20020;-76
2022/05/11 09:11:54;;;;;;;15.20;3.72;;;;;;;16.29;86.04;101135.09;5074076;28;20016;-77
2022/05/11 09:14:35;;;;;;;17.15;3.95;;;;;;;16.07;87.65;101134.25;5075029;28;20039;-77
2022/05/11 09:17:04;;;;;;;15.02;3.22;;;;;;;16.01;88.66;101151.06;5074680;28;20020;-77
2022/05/11 09:19:33;;;;;;;18.55;3.05;;;;;;;16.25;88.33;101132.44;5074688;28;20029;-76
2022/05/11 09:22:12;;;;;;;14.45;3.30;;;;;;;16.37;87.16;101129.75;5073571;28;20103;-76
2022/05/11 09:24:54;;;;;;;19.90;3.35;;;;;;;16.47;86.74;101141.25;5071013;28;20470;-77
2022/05/11 09:27:33;;;;;;;20.45;4.05;;;;;;;16.57;86.60;101136.78;5074634;28;20186;-77
2022/05/11 09:30:01;;;;;;;13.23;3.22;;;;;;;16.21;87.65;101136.91;5074389;28;20111;-77
2022/05/11 09:32:33;;;;;;;14.43;3.60;;;;;;;16.03;88.16;101145.75;5070773;28;20020;-76
2022/05/11 09:35:22;;;;;;;20.48;4.25;;;;;;;15.99;88.92;101138.69;5075458;28;20103;-76
2022/05/11 09:38:19;;;;;;;26.02;3.63;;;;;;;16.18;87.64;101145.75;5072701;28;20103;-76
2022/05/11 09:41:00;;;;;;;21.58;4.45;;;;;;;16.42;86.44;101135.94;5074394;28;20020;-76
2022/05/11 09:43:34;;;;;;;14.27;3.58;;;;;;;16.49;86.03;101135.06;5062783;28;20103;-76
2022/05/11 09:46:00;;;;;;;21.63;3.35;;;;;;;16.44;85.68;101143.91;5075082;28;20032;-76
2022/05/11 09:48:28;;;;;;;20.10;3.13;;;;;;;16.60;84.93;101134.13;5074971;28;20025;-76
2022/05/11 09:51:14;;;;;;;17.88;3.83;;;;;;;16.51;82.83;101127.06;5074978;28;20035;-76
2022/05/11 09:53:50;;;;;;;14.77;2.60;;;;;;;16.67;81.77;101123.47;5074982;28;20020;-77
2022/05/11 09:56:24;;;;;;;18.55;3.00;;;;;;;16.66;81.65;101129.66;5072962;28;20036;-78
2022/05/11 09:58:50;;;;;;;18.25;3.17;;;;;;;16.73;81.41;101127.88;5075186;28;20025;-77
2022/05/11 10:01:22;;;;;;;16.63;2.85;;;;;;;16.68;80.37;101129.66;5075085;28;20051;-76
2022/05/11 10:04:05;;;;;;;12.43;2.78;;;;;;;16.67;76.84;101122.56;5073884;28;20023;-75
2022/05/11 10:06:35;;;;;;;12.68;2.30;;;;;;;16.80;77.59;101113.66;5073376;28;20032;-77
2022/05/11 10:09:01;;;;;;;12.05;2.58;;;;;;;16.99;75.12;101119.78;5069176;28;20460;-76
2022/05/11 10:11:42;;;;;;;32.72;3.60;;;;;;;17.22;73.01;101129.41;5070380;28;20107;-75
2022/05/11 10:23:13;;;;;;;12.80;2.45;;;;;;;17.60;67.69;101122.03;5074058;28;20439;-76
2022/05/11 10:25:40;;;;;;;11.93;1.88;;;;;;;17.66;66.45;101117.56;5071595;28;20563;-75
2022/05/11 10:28:30;;;;;;;9.57;2.22;;;;;;;17.61;68.68;101115.84;5073597;28;20396;-75
2022/05/11 10:31:05;;;;;;;12.48;2.40;;;;;;;17.77;68.68;101105.91;5069790;28;20021;-77
2022/05/11 10:33:59;;;;;;;10.50;1.70;;;;;;;17.67;67.47;101107.78;5053048;28;20690;-76
2022/05/11 10:36:50;;;;;;;10.38;2.03;;;;;;;17.66;69.04;101121.97;5072246;28;22142;-77
2022/05/11 10:39:57;;;;;;;8.63;1.92;;;;;;;17.89;67.96;101113.78;5054526;28;20044;-78
2022/05/11 10:42:34;;;;;;;9.40;2.03;;;;;;;17.80;67.20;101111.25;5012654;28;20072;-77
2022/05/11 10:45:30;;;;;;;13.77;2.03;;;;;;;17.94;66.98;101103.16;5010105;28;20034;-75
2022/05/11 10:48:13;;;;;;;14.23;2.05;;;;;;;18.36;65.48;101108.91;5047725;28;20111;-73
2022/05/11 10:50:41;;;;;;;9.77;2.00;;;;;;;18.28;62.37;101105.44;5071866;28;20036;-75
2022/05/11 10:53:38;;;;;;;11.15;1.70;;;;;;;18.11;63.65;101103.84;5072397;28;20037;-75
2022/05/11 10:56:09;;;;;;;8.88;1.80;;;;;;;18.13;63.39;101099.38;5069781;28;20063;-76
2022/05/11 10:58:51;;;;;;;12.02;1.75;;;;;;;18.36;61.89;101106.25;5068018;28;20044;-75
2022/05/11 11:01:17;;;;;;;7.38;1.40;;;;;;;18.19;62.13;101099.34;5066767;28;20024;-73
2022/05/11 11:04:12;;;;;;;5.15;1.50;;;;;;;18.23;62.04;101107.28;5071647;28;20029;-74
2022/05/11 11:07:11;;;;;;;11.30;1.63;;;;;;;18.38;60.23;101109.78;5070822;28;20020;-72
2022/05/11 11:09:58;;;;;;;8.90;2.05;;;;;;;18.46;58.69;101110.56;5069342;28;20020;-72
2022/05/11 11:12:49;;;;;;;7.30;1.98;;;;;;;18.38;56.53;101107.13;5070384;28;20056;-74
2022/05/11 11:15:18;;;;;;;5.22;1.13;;;;;;;18.50;55.28;101106.97;5069146;28;20041;-74
2022/05/11 11:17:46;;;;;;;5.05;1.20;;;;;;;18.53;55.74;101093.59;5072261;28;20033;-75
2022/05/11 11:20:17;;;;;;;11.38;2.00;;;;;;;18.30;57.78;101109.88;5070475;28;20032;-74
2022/05/11 11:23:14;;;;;;;7.85;1.63;;;;;;;18.31;56.79;101100.09;5070252;28;20107;-74
2022/05/11 11:25:51;;;;;;;10.60;1.30;;;;;;;18.47;55.22;101106.13;5061433;28;20072;-74
2022/05/11 11:28:19;;;;;;;7.95;1.42;;;;;;;18.80;54.81;101094.16;5087786;28;20032;-74
2022/05/11 11:30:59;;;;;;;4.85;1.20;;;;;;;18.80;54.66;101083.50;5071479;28;20039;-72
2022/05/11 11:33:39;;;;;;;7.93;1.70;;;;;;;19.04;53.73;101089.41;5070269;28;20127;-74
2022/05/11 11:36:16;;;;;;;7.10;1.98;;;;;;;19.40;54.91;101079.06;5071069;28;20024;-74
2022/05/11 11:38:41;;;;;;;7.55;2.00;;;;;;;19.41;54.42;101075.50;5072625;28;20032;-74
2022/05/11 11:41:22;;;;;;;5.57;1.37;;;;;;;19.50;50.86;101075.31;5071914;28;20028;-74
2022/05/11 11:44:26;;;;;;;7.25;1.77;;;;;;;19.36;51.91;101069.34;5071359;28;20290;-74
2022/05/11 11:46:52;;;;;;;5.57;1.30;;;;;;;19.68;51.67;101067.91;5069749;28;20051;-75
2022/05/11 11:49:21;;;;;;;8.93;1.60;;;;;;;19.65;51.36;101062.63;5066310;28;20025;-74
2022/05/11 11:52:00;;;;;;;9.48;1.58;;;;;;;19.99;52.37;101068.25;5067285;28;20031;-74
2022/05/11 11:54:38;;;;;;;4.85;1.40;;;;;;;19.87;50.48;101064.03;5069145;28;20120;-75
2022/05/11 11:57:25;;;;;;;11.02;1.58;;;;;;;20.08;49.59;101056.53;5070243;28;20111;-74
2022/05/11 12:00:20;;;;;;;6.88;1.40;;;;;;;20.49;49.46;101052.13;5068646;28;20026;-74
2022/05/11 12:02:47;;;;;;;5.90;1.17;;;;;;;20.38;50.11;101054.16;5063016;28;20105;-75
2022/05/11 12:05:32;;;;;;;11.90;2.30;;;;;;;20.32;50.90;101059.59;5068439;28;20556;-74
2022/05/11 12:16:25;;;;;;;12.90;2.55;;;;;;;20.35;55.58;101070.25;5070682;28;20047;-74